createdAt,value
2018-04-08T00:00:23.123Z,0.00
2018-04-08T00:01:23.021Z,0.00
2018-04-08T00:02:23.359Z,0.00
2018-04-08T00:03:23.050Z,0.00
2018-04-08T00:04:22.929Z,0.00
2018-04-08T00:05:22.918Z,0.00
2018-04-08T00:06:22.899Z,0.00
2018-04-08T00:07:22.954Z,0.00
2018-04-08T00:09:23.199Z,0.00
2018-04-08T00:10:22.892Z,0.00
2018-04-08T00:11:22.987Z,0.00
2018-04-08T00:12:23.151Z,0.00
2018-04-08T00:13:22.784Z,0.00
2018-04-08T00:14:22.771Z,0.00
2018-04-08T00:15:23.051Z,0.00
2018-04-08T00:16:22.735Z,0.00
2018-04-08T00:17:22.719Z,0.00
2018-04-08T00:18:22.806Z,0.00
2018-04-08T00:19:22.688Z,0.00
2018-04-08T00:20:22.666Z,0.00
2018-04-08T00:21:23.024Z,0.00
2018-04-08T00:22:22.781Z,0.00
2018-04-08T00:23:22.689Z,0.00
2018-04-08T00:24:23.051Z,0.00
2018-04-08T00:25:22.774Z,0.00
2018-04-08T00:26:22.618Z,0.00
2018-04-08T00:27:23.545Z,0.00
2018-04-08T00:28:23.330Z,0.00
2018-04-08T00:29:22.543Z,0.00
2018-04-08T00:30:22.560Z,0.00
2018-04-08T00:31:22.489Z,0.00
2018-04-08T00:32:22.474Z,0.00
2018-04-08T00:33:22.457Z,0.00
2018-04-08T00:34:22.736Z,0.00
2018-04-08T00:35:22.420Z,0.00
2018-04-08T00:36:22.453Z,0.00
2018-04-08T00:37:22.389Z,0.00
2018-04-08T00:38:22.372Z,0.00
2018-04-08T00:39:22.355Z,0.00
2018-04-08T00:40:22.343Z,0.00
2018-04-08T00:41:22.671Z,0.00
2018-04-08T00:42:22.306Z,0.00
2018-04-08T00:43:22.280Z,0.00
2018-04-08T00:44:22.715Z,0.00
2018-04-08T00:45:22.489Z,0.00
2018-04-08T00:46:22.247Z,0.00
2018-04-08T00:47:22.652Z,0.00
2018-04-08T00:48:22.657Z,0.00
2018-04-08T00:49:22.295Z,0.00
2018-04-08T00:50:22.175Z,0.00
2018-04-08T00:51:22.159Z,0.00
2018-04-08T00:52:22.139Z,0.00
2018-04-08T00:53:22.170Z,0.00
2018-04-08T00:54:22.153Z,0.00
2018-04-08T00:55:22.387Z,0.00
2018-04-08T00:56:22.370Z,0.00
2018-04-08T00:57:22.054Z,0.00
2018-04-08T00:58:22.110Z,0.00
2018-04-08T00:59:22.171Z,0.00
2018-04-08T01:00:22.202Z,0.00
2018-04-08T01:01:22.636Z,0.00
2018-04-08T01:02:22.270Z,0.00
2018-04-08T01:03:21.956Z,0.00
2018-04-08T01:04:21.938Z,0.00
2018-04-08T01:06:21.895Z,0.00
2018-04-08T01:07:21.882Z,0.00
2018-04-08T01:08:21.865Z,0.00
2018-04-08T01:09:22.294Z,0.00
2018-04-08T01:10:22.323Z,0.00
2018-04-08T01:11:22.164Z,0.00
2018-04-08T01:12:21.803Z,0.00
2018-04-08T01:13:22.124Z,0.00
2018-04-08T01:14:21.763Z,0.00
2018-04-08T01:15:21.859Z,0.00
2018-04-08T01:16:22.524Z,0.00
2018-04-08T01:17:21.809Z,0.00
2018-04-08T01:18:21.715Z,0.00
2018-04-08T01:19:21.681Z,0.00
2018-04-08T01:20:21.716Z,0.00
2018-04-08T01:21:21.754Z,0.00
2018-04-08T01:22:22.029Z,0.00
2018-04-08T01:23:21.745Z,0.00
2018-04-08T01:24:21.599Z,0.00
2018-04-08T01:25:21.681Z,0.00
2018-04-08T01:26:21.565Z,0.00
2018-04-08T01:27:21.548Z,0.00
2018-04-08T01:28:21.880Z,0.00
2018-04-08T01:29:21.515Z,0.00
2018-04-08T01:30:21.500Z,0.00
2018-04-08T01:31:21.535Z,0.00
2018-04-08T01:32:21.514Z,0.00
2018-04-08T01:33:21.498Z,0.00
2018-04-08T01:34:21.723Z,0.00
2018-04-08T01:36:21.493Z,0.00
2018-04-08T01:37:21.377Z,0.00
2018-04-08T01:38:21.460Z,0.00
2018-04-08T01:39:21.343Z,0.00
2018-04-08T01:40:21.623Z,0.00
2018-04-08T01:41:21.421Z,0.00
2018-04-08T01:42:21.468Z,0.00
2018-04-08T01:43:21.275Z,0.00
2018-04-08T01:44:21.758Z,0.00
2018-04-08T01:45:21.368Z,0.00
2018-04-08T01:46:21.569Z,0.00
2018-04-08T01:47:21.278Z,0.00
2018-04-08T01:48:21.579Z,0.00
2018-04-08T01:49:21.225Z,0.00
2018-04-08T01:50:21.210Z,0.00
2018-04-08T01:51:21.138Z,0.00
2018-04-08T01:52:21.420Z,0.00
2018-04-08T01:53:21.101Z,0.00
2018-04-08T01:54:21.134Z,0.00
2018-04-08T01:55:21.167Z,0.00
2018-04-08T01:56:21.127Z,0.00
2018-04-08T01:57:21.115Z,0.00
2018-04-08T01:58:21.314Z,0.00
2018-04-08T01:59:21.347Z,0.00
2018-04-08T02:00:20.982Z,0.00
2018-04-08T02:01:20.968Z,0.00
2018-04-08T02:02:20.959Z,0.00
2018-04-08T02:03:21.036Z,0.00
2018-04-08T02:04:20.911Z,0.00
2018-04-08T02:05:21.292Z,0.00
2018-04-08T02:06:20.978Z,0.00
2018-04-08T02:07:20.908Z,0.00
2018-04-08T02:08:20.895Z,0.00
2018-04-08T02:09:20.835Z,0.00
2018-04-08T02:10:20.819Z,0.00
2018-04-08T02:11:21.141Z,0.00
2018-04-08T02:12:21.074Z,0.00
2018-04-08T02:13:20.760Z,0.00
2018-04-08T02:14:20.754Z,0.00
2018-04-08T02:15:20.712Z,0.00
2018-04-08T02:16:20.753Z,0.00
2018-04-08T02:17:21.027Z,0.00
2018-04-08T02:18:21.273Z,0.00
2018-04-08T02:19:20.950Z,0.00
2018-04-08T02:20:20.688Z,0.00
2018-04-08T02:21:20.665Z,0.00
2018-04-08T02:22:20.648Z,0.00
2018-04-08T02:23:20.864Z,0.00
2018-04-08T02:24:20.866Z,0.00
2018-04-08T02:25:20.546Z,0.00
2018-04-08T02:26:20.899Z,0.00
2018-04-08T02:27:20.604Z,0.00
2018-04-08T02:28:20.603Z,0.00
2018-04-08T02:29:20.927Z,0.00
2018-04-08T02:30:20.463Z,0.00
2018-04-08T02:31:20.439Z,0.00
2018-04-08T02:32:20.432Z,0.00
2018-04-08T02:33:20.703Z,0.00
2018-04-08T02:34:20.386Z,0.00
2018-04-08T02:35:20.473Z,0.00
2018-04-08T02:36:20.399Z,0.00
2018-04-08T02:37:20.325Z,0.00
2018-04-08T02:38:20.676Z,0.00
2018-04-08T02:39:20.652Z,0.00
2018-04-08T02:40:20.627Z,0.00
2018-04-08T02:41:20.269Z,0.00
2018-04-08T02:42:20.349Z,0.00
2018-04-08T02:43:20.321Z,0.00
2018-04-08T02:44:20.205Z,0.00
2018-04-08T02:45:20.400Z,0.00
2018-04-08T02:46:20.166Z,0.00
2018-04-08T02:47:20.515Z,0.00
2018-04-08T02:48:20.340Z,0.00
2018-04-08T02:50:20.203Z,0.00
2018-04-08T02:51:20.082Z,0.00
2018-04-08T02:52:20.056Z,0.00
2018-04-08T02:53:20.396Z,0.00
2018-04-08T02:54:20.029Z,0.00
2018-04-08T02:55:20.108Z,0.00
2018-04-08T02:56:20.099Z,0.00
2018-04-08T02:57:20.071Z,0.00
2018-04-08T02:58:20.051Z,0.00
2018-04-08T02:59:20.336Z,0.00
2018-04-08T03:00:20.020Z,0.00
2018-04-08T03:01:19.909Z,0.00
2018-04-08T03:02:19.981Z,0.00
2018-04-08T03:03:19.864Z,0.00
2018-04-08T03:04:19.853Z,0.00
2018-04-08T03:05:20.144Z,0.00
2018-04-08T03:06:19.814Z,0.00
2018-04-08T03:07:19.856Z,0.00
2018-04-08T03:08:19.829Z,0.00
2018-04-08T03:09:19.757Z,0.00
2018-04-08T03:11:20.016Z,0.00
2018-04-08T03:12:19.694Z,0.00
2018-04-08T03:13:19.835Z,0.00
2018-04-08T03:14:19.788Z,0.00
2018-04-08T03:15:19.721Z,0.00
2018-04-08T03:16:19.840Z,0.00
2018-04-08T03:17:19.971Z,0.00
2018-04-08T03:18:19.664Z,0.00
2018-04-08T03:19:19.620Z,0.00
2018-04-08T03:20:19.552Z,0.00
2018-04-08T03:21:19.543Z,0.00
2018-04-08T03:22:19.520Z,0.00
2018-04-08T03:23:19.922Z,0.00
2018-04-08T03:24:19.583Z,0.00
2018-04-08T03:25:19.567Z,0.00
2018-04-08T03:26:19.573Z,0.00
2018-04-08T03:27:19.449Z,0.00
2018-04-08T03:28:19.707Z,0.00
2018-04-08T03:29:19.405Z,0.00
2018-04-08T03:30:20.020Z,0.00
2018-04-08T03:31:19.358Z,0.00
2018-04-08T03:32:19.340Z,0.00
2018-04-08T03:33:19.321Z,0.00
2018-04-08T03:34:19.309Z,0.00
2018-04-08T03:35:19.284Z,0.00
2018-04-08T03:36:19.320Z,0.00
2018-04-08T03:37:19.547Z,0.00
2018-04-08T03:38:19.232Z,0.00
2018-04-08T03:39:19.213Z,0.00
2018-04-08T03:40:19.194Z,0.00
2018-04-08T03:41:19.225Z,0.00
2018-04-08T03:42:19.163Z,0.00
2018-04-08T03:43:19.172Z,0.00
2018-04-08T03:44:19.421Z,0.00
2018-04-08T03:45:19.103Z,0.00
2018-04-08T03:46:19.086Z,0.00
2018-04-08T03:47:19.123Z,0.00
2018-04-08T03:48:19.046Z,0.00
2018-04-08T03:49:19.032Z,0.00
2018-04-08T03:50:19.010Z,0.00
2018-04-08T03:51:19.293Z,0.00
2018-04-08T03:52:18.971Z,0.00
2018-04-08T03:53:19.056Z,0.00
2018-04-08T03:54:18.936Z,0.00
2018-04-08T03:55:18.918Z,0.00
2018-04-08T03:56:18.917Z,0.00
2018-04-08T03:57:18.980Z,0.00
2018-04-08T03:58:19.164Z,0.00
2018-04-08T03:59:18.897Z,0.00
2018-04-08T04:00:18.828Z,0.00
2018-04-08T04:01:18.810Z,0.00
2018-04-08T04:02:18.792Z,0.00
2018-04-08T04:03:18.809Z,0.00
2018-04-08T04:04:18.756Z,0.00
2018-04-08T04:05:19.091Z,0.00
2018-04-08T04:06:18.716Z,0.00
2018-04-08T04:07:18.703Z,0.00
2018-04-08T04:08:18.680Z,0.00
2018-04-08T04:09:18.665Z,0.00
2018-04-08T04:10:18.647Z,0.00
2018-04-08T04:11:18.695Z,0.00
2018-04-08T04:12:18.906Z,0.00
2018-04-08T04:13:18.587Z,0.00
2018-04-08T04:14:18.572Z,0.00
2018-04-08T04:15:18.600Z,0.00
2018-04-08T04:16:18.531Z,0.00
2018-04-08T04:17:18.612Z,0.00
2018-04-08T04:18:18.801Z,0.00
2018-04-08T04:19:18.492Z,0.00
2018-04-08T04:20:18.507Z,0.00
2018-04-08T04:21:18.496Z,0.00
2018-04-08T04:22:18.421Z,0.00
2018-04-08T04:23:18.407Z,0.00
2018-04-08T04:24:18.690Z,0.00
2018-04-08T04:26:18.345Z,0.00
2018-04-08T04:27:18.348Z,0.00
2018-04-08T04:28:18.307Z,0.00
2018-04-08T04:29:18.290Z,0.00
2018-04-08T04:30:18.576Z,0.00
2018-04-08T04:31:18.403Z,0.00
2018-04-08T04:32:18.436Z,0.00
2018-04-08T04:33:18.207Z,0.00
2018-04-08T04:34:18.188Z,5.63
2018-04-08T04:35:18.182Z,5.63
2018-04-08T04:36:18.811Z,5.63
2018-04-08T04:37:18.140Z,5.63
2018-04-08T04:38:18.127Z,5.63
2018-04-08T04:39:18.139Z,5.63
2018-04-08T04:40:18.085Z,5.63
2018-04-08T04:41:18.066Z,5.63
2018-04-08T04:42:18.452Z,11.25
2018-04-08T04:43:18.032Z,11.25
2018-04-08T04:44:18.011Z,11.25
2018-04-08T04:45:18.045Z,11.25
2018-04-08T04:46:23.242Z,11.25
2018-04-08T04:47:17.954Z,16.88
2018-04-08T04:48:18.290Z,16.88
2018-04-08T04:49:17.996Z,16.88
2018-04-08T04:50:17.903Z,16.88
2018-04-08T04:51:17.935Z,16.88
2018-04-08T04:52:17.858Z,16.88
2018-04-08T04:53:17.892Z,22.50
2018-04-08T04:54:18.171Z,22.50
2018-04-08T04:55:17.804Z,22.50
2018-04-08T04:56:17.781Z,22.50
2018-04-08T04:57:17.768Z,22.50
2018-04-08T04:58:17.747Z,28.13
2018-04-08T04:59:17.830Z,28.13
2018-04-08T05:00:17.705Z,28.13
2018-04-08T05:01:17.987Z,28.13
2018-04-08T05:02:17.670Z,33.75
2018-04-08T05:03:17.761Z,33.75
2018-04-08T05:04:17.684Z,33.75
2018-04-08T05:05:17.715Z,33.75
2018-04-08T05:06:17.701Z,33.75
2018-04-08T05:07:17.575Z,39.38
2018-04-08T05:08:17.952Z,39.38
2018-04-08T05:09:17.638Z,39.38
2018-04-08T05:10:17.620Z,39.38
2018-04-08T05:11:17.655Z,39.38
2018-04-08T05:12:17.654Z,45.00
2018-04-08T05:13:17.463Z,45.00
2018-04-08T05:14:17.834Z,45.00
2018-04-08T05:15:17.756Z,45.00
2018-04-08T05:16:18.134Z,50.63
2018-04-08T05:17:17.391Z,50.63
2018-04-08T05:18:18.002Z,50.63
2018-04-08T05:20:17.407Z,50.63
2018-04-08T05:21:17.323Z,56.25
2018-04-08T05:23:17.581Z,56.25
2018-04-08T05:24:17.307Z,56.25
2018-04-08T05:25:17.549Z,56.25
2018-04-08T05:26:17.216Z,61.88
2018-04-08T05:27:17.378Z,61.88
2018-04-08T05:28:17.438Z,61.88
2018-04-08T05:29:17.226Z,61.88
2018-04-08T05:30:17.755Z,61.88
2018-04-08T05:31:17.133Z,67.50
2018-04-08T05:32:17.133Z,67.50
2018-04-08T05:33:17.092Z,67.50
2018-04-08T05:34:17.078Z,67.50
2018-04-08T05:35:17.047Z,67.50
2018-04-08T05:36:17.374Z,67.50
2018-04-08T05:37:17.307Z,73.13
2018-04-08T05:38:17.000Z,73.13
2018-04-08T05:39:16.997Z,73.13
2018-04-08T05:40:17.004Z,73.13
2018-04-08T05:41:16.945Z,73.13
2018-04-08T05:42:16.989Z,78.75
2018-04-08T05:43:17.209Z,78.75
2018-04-08T05:44:16.884Z,78.75
2018-04-08T05:45:16.924Z,78.75
2018-04-08T05:46:16.870Z,78.75
2018-04-08T05:47:16.879Z,78.75
2018-04-08T05:48:16.958Z,84.38
2018-04-08T05:49:17.270Z,84.38
2018-04-08T05:50:16.768Z,84.38
2018-04-08T05:51:16.748Z,84.38
2018-04-08T05:52:16.735Z,84.38
2018-04-08T05:53:16.771Z,84.38
2018-04-08T05:54:16.859Z,90.00
2018-04-08T05:55:16.996Z,90.00
2018-04-08T05:56:16.677Z,90.00
2018-04-08T05:57:16.708Z,90.00
2018-04-08T05:58:16.640Z,90.00
2018-04-08T05:59:16.616Z,90.00
2018-04-08T06:00:16.811Z,95.63
2018-04-08T06:01:16.999Z,95.63
2018-04-08T06:02:22.847Z,95.63
2018-04-08T06:03:16.557Z,95.63
2018-04-08T06:04:16.604Z,95.63
2018-04-08T06:05:16.555Z,95.63
2018-04-08T06:06:16.573Z,101.25
2018-04-08T06:07:17.467Z,101.25
2018-04-08T06:08:16.456Z,101.25
2018-04-08T06:09:16.703Z,101.25
2018-04-08T06:10:16.486Z,101.25
2018-04-08T06:11:16.555Z,101.25
2018-04-08T06:12:16.380Z,101.25
2018-04-08T06:13:16.765Z,106.88
2018-04-08T06:14:16.646Z,106.88
2018-04-08T06:15:16.346Z,106.88
2018-04-08T06:16:16.325Z,106.88
2018-04-08T06:17:16.403Z,106.88
2018-04-08T06:18:16.286Z,106.88
2018-04-08T06:19:16.569Z,106.88
2018-04-08T06:20:16.308Z,112.50
2018-04-08T06:21:16.235Z,112.50
2018-04-08T06:22:16.219Z,112.50
2018-04-08T06:23:16.263Z,112.50
2018-04-08T06:24:16.189Z,112.50
2018-04-08T06:25:16.165Z,112.50
2018-04-08T06:26:16.444Z,112.50
2018-04-08T06:27:16.141Z,118.13
2018-04-08T06:28:16.166Z,118.13
2018-04-08T06:29:16.155Z,118.13
2018-04-08T06:32:16.160Z,118.13
2018-04-08T06:33:16.747Z,118.13
2018-04-08T06:35:16.103Z,123.75
2018-04-08T06:36:16.048Z,123.75
2018-04-08T06:38:15.967Z,123.75
2018-04-08T06:39:16.565Z,123.75
2018-04-08T06:40:16.397Z,123.75
2018-04-08T06:41:15.910Z,123.75
2018-04-08T06:42:15.876Z,129.38
2018-04-08T06:43:15.860Z,129.38
2018-04-08T06:44:15.845Z,129.38
2018-04-08T06:45:16.182Z,129.38
2018-04-08T06:46:15.816Z,129.38
2018-04-08T06:47:16.097Z,129.38
2018-04-08T06:48:15.779Z,129.38
2018-04-08T06:49:15.817Z,135.00
2018-04-08T06:50:15.756Z,135.00
2018-04-08T06:51:15.894Z,135.00
2018-04-08T06:52:15.719Z,135.00
2018-04-08T06:53:15.703Z,135.00
2018-04-08T06:54:15.988Z,135.00
2018-04-08T06:55:15.675Z,135.00
2018-04-08T06:56:15.761Z,140.63
2018-04-08T06:57:15.745Z,140.63
2018-04-08T06:58:15.713Z,140.63
2018-04-08T06:59:15.701Z,140.63
2018-04-08T07:00:16.009Z,140.63
2018-04-08T07:01:16.292Z,140.63
2018-04-08T07:02:15.973Z,140.63
2018-04-08T07:03:16.052Z,146.25
2018-04-08T07:04:15.924Z,146.25
2018-04-08T07:06:15.524Z,146.25
2018-04-08T07:07:15.882Z,146.25
2018-04-08T07:08:16.633Z,146.25
2018-04-08T07:09:15.656Z,146.25
2018-04-08T07:10:15.900Z,151.88
2018-04-08T07:12:16.075Z,151.88
2018-04-08T07:13:15.807Z,151.88
2018-04-08T07:14:16.292Z,151.88
2018-04-08T07:15:15.780Z,151.88
2018-04-08T07:16:16.301Z,151.88
2018-04-08T07:17:16.140Z,157.50
2018-04-08T07:18:15.352Z,157.50
2018-04-08T07:19:15.351Z,157.50
2018-04-08T07:20:15.620Z,157.50
2018-04-08T07:21:15.308Z,157.50
2018-04-08T07:22:15.290Z,157.50
2018-04-08T07:23:15.375Z,163.13
2018-04-08T07:24:15.277Z,163.13
2018-04-08T07:25:15.419Z,163.13
2018-04-08T07:26:16.008Z,163.13
2018-04-08T07:27:15.400Z,168.75
2018-04-08T07:28:15.204Z,174.38
2018-04-08T07:29:15.249Z,174.38
2018-04-08T07:30:15.180Z,174.38
2018-04-08T07:31:15.709Z,174.38
2018-04-08T07:32:15.653Z,174.38
2018-04-08T07:33:15.816Z,180.00
2018-04-08T07:34:15.205Z,180.00
2018-04-08T07:35:15.272Z,180.00
2018-04-08T07:36:15.203Z,180.00
2018-04-08T07:37:15.168Z,180.00
2018-04-08T07:38:15.375Z,185.63
2018-04-08T07:39:15.120Z,185.63
2018-04-08T07:40:15.103Z,185.63
2018-04-08T07:41:15.039Z,191.25
2018-04-08T07:42:15.116Z,191.25
2018-04-08T07:43:15.037Z,191.25
2018-04-08T07:45:15.379Z,196.88
2018-04-08T07:46:15.365Z,196.88
2018-04-08T07:47:15.023Z,196.88
2018-04-08T07:49:15.024Z,202.50
2018-04-08T07:50:15.299Z,202.50
2018-04-08T07:51:14.994Z,202.50
2018-04-08T07:52:14.919Z,202.50
2018-04-08T07:53:15.127Z,208.13
2018-04-08T07:54:15.061Z,208.13
2018-04-08T07:55:14.989Z,208.13
2018-04-08T07:56:14.880Z,208.13
2018-04-08T07:57:15.171Z,213.75
2018-04-08T07:58:14.862Z,213.75
2018-04-08T07:59:14.987Z,213.75
2018-04-08T08:00:15.223Z,219.38
2018-04-08T08:01:16.018Z,219.38
2018-04-08T08:02:15.819Z,219.38
2018-04-08T08:04:15.242Z,225.00
2018-04-08T08:06:14.900Z,225.00
2018-04-08T08:07:15.454Z,225.00
2018-04-08T08:12:15.164Z,236.25
2018-04-08T08:13:15.058Z,236.25
2018-04-08T08:14:14.795Z,241.88
2018-04-08T08:15:15.004Z,247.50
2018-04-08T08:16:14.824Z,253.13
2018-04-08T08:17:14.826Z,258.75
2018-04-08T08:19:15.063Z,258.75
2018-04-08T08:20:14.736Z,264.38
2018-04-08T08:22:59.639Z,270.00
2018-04-08T08:23:59.457Z,270.00
2018-04-08T08:24:59.528Z,275.63
2018-04-08T08:25:59.438Z,275.63
2018-04-08T08:26:59.437Z,281.25
2018-04-08T08:27:59.731Z,281.25
2018-04-08T08:28:59.467Z,281.25
2018-04-08T08:29:59.398Z,286.88
2018-04-08T08:30:59.455Z,286.88
2018-04-08T08:31:59.399Z,292.50
2018-04-08T08:32:59.558Z,292.50
2018-04-08T08:33:59.521Z,292.50
2018-04-08T08:34:59.431Z,292.50
2018-04-08T08:35:59.372Z,298.13
2018-04-08T08:36:59.499Z,298.13
2018-04-08T08:37:59.354Z,303.75
2018-04-08T08:38:59.343Z,309.38
2018-04-08T08:39:59.361Z,309.38
2018-04-08T08:40:59.853Z,309.38
2018-04-08T08:41:59.633Z,315.00
2018-04-08T08:42:59.324Z,315.00
2018-04-08T08:43:59.318Z,320.63
2018-04-08T08:44:59.678Z,320.63
2018-04-08T08:45:59.304Z,326.25
2018-04-08T08:46:59.504Z,331.88
2018-04-08T08:47:59.299Z,331.88
2018-04-08T08:48:59.302Z,337.50
2018-04-08T08:49:59.308Z,343.13
2018-04-08T08:50:59.574Z,343.13
2018-04-08T08:51:59.273Z,348.75
2018-04-08T08:52:59.430Z,348.75
2018-04-08T08:53:59.274Z,354.38
2018-04-08T08:54:59.405Z,360.00
2018-04-08T08:55:59.980Z,365.63
2018-04-08T08:56:59.268Z,371.25
2018-04-08T08:57:59.344Z,376.88
2018-04-08T08:58:59.289Z,382.50
2018-04-08T08:59:59.225Z,388.13
2018-04-08T09:00:59.224Z,393.75
2018-04-08T09:01:59.224Z,399.38
2018-04-08T09:02:59.222Z,405.00
2018-04-08T09:03:59.307Z,410.63
2018-04-08T09:04:59.262Z,416.25
2018-04-08T09:05:59.266Z,427.50
2018-04-08T09:06:59.281Z,433.13
2018-04-08T09:07:59.210Z,444.38
2018-04-08T09:08:59.206Z,455.63
2018-04-08T09:09:59.255Z,466.88
2018-04-08T09:10:59.238Z,472.50
2018-04-08T09:11:59.942Z,478.13
2018-04-08T09:12:59.190Z,489.38
2018-04-08T09:13:59.583Z,495.00
2018-04-08T09:14:59.184Z,506.25
2018-04-08T09:15:59.318Z,517.50
2018-04-08T09:16:59.234Z,528.75
2018-04-08T09:17:59.164Z,534.38
2018-04-08T09:18:59.259Z,540.00
2018-04-08T09:19:59.531Z,551.25
2018-04-08T09:20:59.210Z,562.50
2018-04-08T09:21:59.395Z,568.13
2018-04-08T09:22:59.522Z,579.38
2018-04-08T09:23:59.260Z,590.63
2018-04-08T09:24:59.263Z,601.88
2018-04-08T09:25:59.145Z,624.38
2018-04-08T09:27:59.219Z,652.50
2018-04-08T09:28:59.178Z,714.38
2018-04-08T09:29:59.128Z,1355.63
2018-04-08T09:30:59.123Z,2581.88
2018-04-08T09:31:59.440Z,3088.13
2018-04-08T09:32:59.122Z,2970.00
2018-04-08T09:33:59.170Z,2964.38
2018-04-08T09:34:59.173Z,3195.00
2018-04-08T09:35:59.111Z,3228.75
2018-04-08T09:36:59.108Z,3127.50
2018-04-08T09:37:59.418Z,3026.25
2018-04-08T09:38:59.113Z,2812.50
2018-04-08T09:39:59.101Z,2666.25
2018-04-08T09:40:59.155Z,2323.13
2018-04-08T09:41:59.099Z,1963.13
2018-04-08T09:42:59.095Z,1783.13
2018-04-08T09:43:59.460Z,1552.50
2018-04-08T09:44:59.215Z,1293.75
2018-04-08T09:45:59.080Z,1046.25
2018-04-08T09:46:59.282Z,900.00
2018-04-08T09:47:59.082Z,860.63
2018-04-08T09:48:59.092Z,838.13
2018-04-08T09:49:59.382Z,815.63
2018-04-08T09:50:59.085Z,804.38
2018-04-08T09:51:59.113Z,793.13
2018-04-08T09:52:59.115Z,781.88
2018-04-08T09:53:59.267Z,776.25
2018-04-08T09:54:59.109Z,770.63
2018-04-08T09:55:59.379Z,765.00
2018-04-08T09:56:59.062Z,759.38
2018-04-08T09:57:59.063Z,759.38
2018-04-08T09:58:59.113Z,759.38
2018-04-08T09:59:59.070Z,753.75
2018-04-08T10:00:59.069Z,748.13
2018-04-08T10:01:59.085Z,742.50
2018-04-08T10:02:59.301Z,742.50
2018-04-08T10:03:59.086Z,742.50
2018-04-08T10:04:59.200Z,748.13
2018-04-08T10:05:59.411Z,748.13
2018-04-08T10:06:59.097Z,748.13
2018-04-08T10:07:59.373Z,748.13
2018-04-08T10:08:59.074Z,748.13
2018-04-08T10:09:59.047Z,748.13
2018-04-08T10:10:59.194Z,759.38
2018-04-08T10:11:59.851Z,759.38
2018-04-08T10:12:59.050Z,759.38
2018-04-08T10:13:59.363Z,770.63
2018-04-08T10:14:59.055Z,770.63
2018-04-08T10:15:59.061Z,776.25
2018-04-08T10:16:59.198Z,781.88
2018-04-08T10:17:59.048Z,787.50
2018-04-08T10:19:00.975Z,781.88
2018-04-08T10:19:59.038Z,787.50
2018-04-08T10:20:59.034Z,787.50
2018-04-08T10:21:59.058Z,787.50
2018-04-08T10:22:59.173Z,781.88
2018-04-08T10:23:59.039Z,787.50
2018-04-08T10:24:59.344Z,781.88
2018-04-08T10:25:59.229Z,787.50
2018-04-08T10:26:59.140Z,776.25
2018-04-08T10:27:59.042Z,770.63
2018-04-08T10:28:59.167Z,765.00
2018-04-08T10:29:59.056Z,759.38
2018-04-08T10:30:59.341Z,753.75
2018-04-08T10:31:59.069Z,742.50
2018-04-08T10:32:59.050Z,731.25
2018-04-08T10:33:59.088Z,731.25
2018-04-08T10:34:59.125Z,725.63
2018-04-08T10:35:59.054Z,720.00
2018-04-08T10:36:59.352Z,720.00
2018-04-08T10:37:59.157Z,720.00
2018-04-08T10:38:59.182Z,714.38
2018-04-08T10:39:59.093Z,714.38
2018-04-08T10:40:59.158Z,708.75
2018-04-08T10:41:59.112Z,708.75
2018-04-08T10:42:59.417Z,708.75
2018-04-08T10:43:59.062Z,714.38
2018-04-08T10:44:59.072Z,714.38
2018-04-08T10:45:59.120Z,708.75
2018-04-08T10:46:59.119Z,703.13
2018-04-08T10:47:59.065Z,714.38
2018-04-08T10:48:59.358Z,714.38
2018-04-08T10:49:59.055Z,725.63
2018-04-08T10:50:59.102Z,736.88
2018-04-08T10:51:59.064Z,765.00
2018-04-08T10:52:59.114Z,826.88
2018-04-08T10:53:59.088Z,1040.63
2018-04-08T10:54:59.389Z,1113.75
2018-04-08T10:55:59.069Z,1215.00
2018-04-08T10:56:59.078Z,1305.00
2018-04-08T10:57:59.085Z,1625.63
2018-04-08T10:58:59.131Z,1676.25
2018-04-08T10:59:59.097Z,1760.63
2018-04-08T11:00:59.395Z,2025.00
2018-04-08T11:01:59.084Z,1828.13
2018-04-08T11:02:59.130Z,1929.38
2018-04-08T11:03:59.081Z,2070.00
2018-04-08T11:04:59.258Z,1951.88
2018-04-08T11:05:59.156Z,2160.00
2018-04-08T11:06:59.395Z,2401.88
2018-04-08T11:07:59.094Z,2475.00
2018-04-08T11:10:59.147Z,2002.50
2018-04-08T11:11:59.087Z,1113.75
2018-04-08T11:12:59.412Z,781.88
2018-04-08T11:13:59.249Z,720.00
2018-04-08T11:14:59.096Z,697.50
2018-04-08T11:15:59.101Z,680.63
2018-04-08T11:16:59.276Z,675.00
2018-04-08T11:17:59.248Z,669.38
2018-04-08T11:18:59.410Z,669.38
2018-04-08T11:19:59.116Z,658.13
2018-04-08T11:20:59.126Z,646.88
2018-04-08T11:21:59.313Z,646.88
2018-04-08T11:22:59.374Z,641.25
2018-04-08T11:23:59.123Z,635.63
2018-04-08T11:24:59.432Z,635.63
2018-04-08T11:25:59.227Z,635.63
2018-04-08T11:26:59.142Z,635.63
2018-04-08T11:27:59.204Z,630.00
2018-04-08T11:28:59.207Z,630.00
2018-04-08T11:29:59.132Z,630.00
2018-04-08T11:30:59.444Z,624.38
2018-04-08T11:31:59.162Z,624.38
2018-04-08T11:32:59.218Z,618.75
2018-04-08T11:33:59.173Z,618.75
2018-04-08T11:34:59.333Z,618.75
2018-04-08T11:35:59.183Z,618.75
2018-04-08T11:36:59.266Z,618.75
2018-04-08T11:37:59.202Z,618.75
2018-04-08T11:38:59.281Z,613.13
2018-04-08T11:39:59.219Z,613.13
2018-04-08T11:40:59.515Z,613.13
2018-04-08T11:42:00.079Z,613.13
2018-04-08T11:42:59.476Z,618.75
2018-04-08T11:43:59.180Z,618.75
2018-04-08T11:44:59.185Z,618.75
2018-04-08T11:45:59.267Z,613.13
2018-04-08T11:46:59.238Z,618.75
2018-04-08T11:47:59.227Z,613.13
2018-04-08T11:48:59.492Z,613.13
2018-04-08T11:49:59.206Z,618.75
2018-04-08T11:50:59.203Z,613.13
2018-04-08T11:51:59.193Z,613.13
2018-04-08T11:52:59.246Z,613.13
2018-04-08T11:53:59.978Z,613.13
2018-04-08T11:54:59.509Z,613.13
2018-04-08T11:55:59.207Z,613.13
2018-04-08T11:56:59.225Z,613.13
2018-04-08T11:57:59.254Z,613.13
2018-04-08T11:58:59.263Z,618.75
2018-04-08T11:59:59.324Z,607.50
2018-04-08T12:00:59.518Z,607.50
2018-04-08T12:01:59.273Z,607.50
2018-04-08T12:02:59.274Z,601.88
2018-04-08T12:03:59.233Z,607.50
2018-04-08T12:05:59.284Z,601.88
2018-04-08T12:06:59.343Z,601.88
2018-04-08T12:07:59.266Z,601.88
2018-04-08T12:08:59.295Z,601.88
2018-04-08T12:09:59.254Z,601.88
2018-04-08T12:10:59.255Z,601.88
2018-04-08T12:11:59.350Z,601.88
2018-04-08T12:12:59.564Z,601.88
2018-04-08T12:14:59.296Z,601.88
2018-04-08T12:15:59.403Z,601.88
2018-04-08T12:16:59.259Z,601.88
2018-04-08T12:17:59.330Z,607.50
2018-04-08T12:18:59.562Z,601.88
2018-04-08T12:19:59.266Z,596.25
2018-04-08T12:20:59.274Z,601.88
2018-04-08T12:21:59.264Z,601.88
2018-04-08T12:22:59.334Z,601.88
2018-04-08T12:23:59.572Z,601.88
2018-04-08T12:24:59.571Z,601.88
2018-04-08T12:25:59.287Z,601.88
2018-04-08T12:27:59.297Z,607.50
2018-04-08T12:28:59.294Z,613.13
2018-04-08T12:29:59.501Z,601.88
2018-04-08T12:30:59.608Z,601.88
2018-04-08T12:31:59.297Z,601.88
2018-04-08T12:32:59.300Z,601.88
2018-04-08T12:33:59.493Z,607.50
2018-04-08T12:34:59.339Z,613.13
2018-04-08T12:36:59.704Z,613.13
2018-04-08T12:37:59.444Z,613.13
2018-04-08T12:38:59.309Z,613.13
2018-04-08T12:39:59.336Z,613.13
2018-04-08T12:40:59.338Z,618.75
2018-04-08T12:41:59.384Z,624.38
2018-04-08T12:42:59.697Z,630.00
2018-04-08T12:43:59.372Z,630.00
2018-04-08T12:44:59.321Z,624.38
2018-04-08T12:45:59.382Z,630.00
2018-04-08T12:46:59.347Z,635.63
2018-04-08T12:47:59.527Z,635.63
2018-04-08T12:48:59.429Z,646.88
2018-04-08T12:50:59.405Z,641.25
2018-04-08T12:51:59.708Z,646.88
2018-04-08T12:52:59.941Z,646.88
2018-04-08T12:53:59.358Z,652.50
2018-04-08T12:54:59.706Z,658.13
2018-04-08T12:55:59.351Z,663.75
2018-04-08T12:56:59.357Z,663.75
2018-04-08T12:57:59.363Z,675.00
2018-04-08T12:58:59.365Z,686.25
2018-04-08T12:59:59.370Z,691.88
2018-04-08T13:00:59.732Z,703.13
2018-04-08T13:01:59.621Z,708.75
2018-04-08T13:02:59.379Z,725.63
2018-04-08T13:03:59.381Z,742.50
2018-04-08T13:05:59.868Z,742.50
2018-04-08T13:06:59.845Z,753.75
2018-04-08T13:07:59.382Z,765.00
2018-04-08T13:08:59.403Z,776.25
2018-04-08T13:09:59.414Z,860.63
2018-04-08T13:10:59.407Z,1141.88
2018-04-08T13:11:59.399Z,1693.13
2018-04-08T13:12:59.751Z,2036.25
2018-04-08T13:13:59.411Z,1755.00
2018-04-08T13:14:59.584Z,1192.50
2018-04-08T13:15:59.407Z,883.13
2018-04-08T13:16:59.424Z,781.88
2018-04-08T13:18:59.894Z,731.25
2018-04-08T13:19:59.408Z,720.00
2018-04-08T13:20:59.408Z,725.63
2018-04-08T13:21:59.482Z,720.00